Ballypatrick Forest, United Kingdom
Current Conditions -  °F | °C
As of 5:20 AM on Sunday 21 Dec 2014 (Local Time) from EGPI Reporting Station
Broken Clouds Broken Clouds  
Wind Chill: 41°   Ceiling: 3700
Heat Index: 48°   Visibility: 6mi
Dew Point: 45°   Wind: 23mph
Humidity: 87%   Direction: 210°SSW
Pressure: 29.97"   Gusts: NA
Location:  55.18°N, 6.17°W
Report Text: EGPI 210520Z AUTO 21020KT 9999 SCT022/// BKN037/// 09/07 Q1015
Loading
Personal Weather Stations






























Interactive Weather Map New forecast layout! Learn more

10-Day Weather Forecast

Advertisements
Track Severe Weather on mobile